sensor_id;sensor_type;location;lat;lon;timestamp;P1;durP1;ratioP1;P2;durP2;ratioP2
15002;SDS011;7597;53.590;10.020;2022-11-20T00:01:55;5.97;;;4.03;;
15002;SDS011;7597;53.590;10.020;2022-11-20T00:04:21;7.37;;;3.93;;
15002;SDS011;7597;53.590;10.020;2022-11-20T00:06:48;5.87;;;4.07;;
15002;SDS011;7597;53.590;10.020;2022-11-20T00:09:15;6.67;;;4.77;;
15002;SDS011;7597;53.590;10.020;2022-11-20T00:11:41;6.30;;;3.77;;
15002;SDS011;7597;53.590;10.020;2022-11-20T00:14:08;6.63;;;3.90;;
15002;SDS011;7597;53.590;10.020;2022-11-20T00:16:35;7.20;;;4.37;;
15002;SDS011;7597;53.590;10.020;2022-11-20T00:19:01;8.33;;;5.13;;
15002;SDS011;7597;53.590;10.020;2022-11-20T00:21:29;6.80;;;4.27;;
15002;SDS011;7597;53.590;10.020;2022-11-20T00:23:55;4.80;;;3.90;;
15002;SDS011;7597;53.590;10.020;2022-11-20T00:26:22;7.00;;;4.50;;
15002;SDS011;7597;53.590;10.020;2022-11-20T00:28:50;5.93;;;4.63;;
15002;SDS011;7597;53.590;10.020;2022-11-20T00:31:15;6.90;;;3.93;;
15002;SDS011;7597;53.590;10.020;2022-11-20T00:33:42;8.80;;;5.80;;
15002;SDS011;7597;53.590;10.020;2022-11-20T00:36:10;7.67;;;5.53;;
15002;SDS011;7597;53.590;10.020;2022-11-20T00:38:36;6.17;;;3.80;;
15002;SDS011;7597;53.590;10.020;2022-11-20T00:41:04;5.90;;;4.03;;
15002;SDS011;7597;53.590;10.020;2022-11-20T00:43:29;8.03;;;4.70;;
15002;SDS011;7597;53.590;10.020;2022-11-20T00:45:59;22.17;;;11.87;;
15002;SDS011;7597;53.590;10.020;2022-11-20T00:48:26;5.47;;;3.90;;
15002;SDS011;7597;53.590;10.020;2022-11-20T00:50:53;18.27;;;10.23;;
15002;SDS011;7597;53.590;10.020;2022-11-20T00:53:19;8.93;;;5.30;;
15002;SDS011;7597;53.590;10.020;2022-11-20T00:58:20;7.00;;;4.93;;
15002;SDS011;7597;53.590;10.020;2022-11-20T01:00:46;5.50;;;3.57;;
15002;SDS011;7597;53.590;10.020;2022-11-20T01:03:13;9.00;;;4.43;;
15002;SDS011;7597;53.590;10.020;2022-11-20T01:05:39;8.10;;;4.83;;
15002;SDS011;7597;53.590;10.020;2022-11-20T01:08:07;6.90;;;4.97;;
15002;SDS011;7597;53.590;10.020;2022-11-20T01:10:33;5.47;;;4.27;;
15002;SDS011;7597;53.590;10.020;2022-11-20T01:13:00;5.77;;;4.00;;
15002;SDS011;7597;53.590;10.020;2022-11-20T01:15:33;5.37;;;4.20;;
15002;SDS011;7597;53.590;10.020;2022-11-20T01:18:00;6.37;;;4.13;;
15002;SDS011;7597;53.590;10.020;2022-11-20T01:20:26;4.73;;;3.70;;
15002;SDS011;7597;53.590;10.020;2022-11-20T01:22:53;6.83;;;4.00;;
15002;SDS011;7597;53.590;10.020;2022-11-20T01:25:20;7.37;;;4.53;;
15002;SDS011;7597;53.590;10.020;2022-11-20T01:27:46;5.83;;;4.80;;
15002;SDS011;7597;53.590;10.020;2022-11-20T01:30:13;5.57;;;3.80;;
15002;SDS011;7597;53.590;10.020;2022-11-20T01:32:40;5.60;;;4.10;;
15002;SDS011;7597;53.590;10.020;2022-11-20T01:35:07;7.57;;;4.17;;
15002;SDS011;7597;53.590;10.020;2022-11-20T01:37:34;10.77;;;7.10;;
15002;SDS011;7597;53.590;10.020;2022-11-20T01:40:01;12.87;;;6.77;;
15002;SDS011;7597;53.590;10.020;2022-11-20T01:42:28;5.70;;;4.20;;
15002;SDS011;7597;53.590;10.020;2022-11-20T01:45:00;4.93;;;3.70;;
15002;SDS011;7597;53.590;10.020;2022-11-20T01:47:37;5.40;;;4.43;;
15002;SDS011;7597;53.590;10.020;2022-11-20T01:50:09;5.57;;;4.57;;
15002;SDS011;7597;53.590;10.020;2022-11-20T01:52:42;11.07;;;7.00;;
15002;SDS011;7597;53.590;10.020;2022-11-20T01:55:09;6.63;;;4.23;;
15002;SDS011;7597;53.590;10.020;2022-11-20T01:57:36;7.13;;;4.47;;
15002;SDS011;7597;53.590;10.020;2022-11-20T02:00:06;5.77;;;4.60;;
15002;SDS011;7597;53.590;10.020;2022-11-20T02:02:32;7.03;;;4.60;;
15002;SDS011;7597;53.590;10.020;2022-11-20T02:05:02;6.23;;;4.70;;
15002;SDS011;7597;53.590;10.020;2022-11-20T02:07:25;8.63;;;5.90;;
15002;SDS011;7597;53.590;10.020;2022-11-20T02:09:52;6.47;;;4.40;;
15002;SDS011;7597;53.590;10.020;2022-11-20T02:12:19;7.10;;;4.30;;
15002;SDS011;7597;53.590;10.020;2022-11-20T02:14:51;7.27;;;4.33;;
15002;SDS011;7597;53.590;10.020;2022-11-20T02:17:18;6.43;;;4.90;;
15002;SDS011;7597;53.590;10.020;2022-11-20T02:19:44;4.97;;;3.93;;
15002;SDS011;7597;53.590;10.020;2022-11-20T02:22:17;5.20;;;4.43;;
15002;SDS011;7597;53.590;10.020;2022-11-20T02:24:41;5.80;;;4.83;;
15002;SDS011;7597;53.590;10.020;2022-11-20T02:27:09;8.30;;;5.10;;
15002;SDS011;7597;53.590;10.020;2022-11-20T02:29:36;6.03;;;4.73;;
15002;SDS011;7597;53.590;10.020;2022-11-20T02:32:03;8.97;;;5.10;;
15002;SDS011;7597;53.590;10.020;2022-11-20T02:34:30;7.53;;;4.63;;
15002;SDS011;7597;53.590;10.020;2022-11-20T02:36:57;6.13;;;4.20;;
15002;SDS011;7597;53.590;10.020;2022-11-20T02:39:24;7.73;;;5.53;;
15002;SDS011;7597;53.590;10.020;2022-11-20T02:41:50;10.57;;;4.93;;
15002;SDS011;7597;53.590;10.020;2022-11-20T02:44:17;5.43;;;4.27;;
15002;SDS011;7597;53.590;10.020;2022-11-20T02:46:43;6.70;;;4.90;;
15002;SDS011;7597;53.590;10.020;2022-11-20T02:49:10;4.20;;;3.80;;
15002;SDS011;7597;53.590;10.020;2022-11-20T02:51:37;8.40;;;4.43;;
15002;SDS011;7597;53.590;10.020;2022-11-20T02:54:04;5.53;;;4.53;;
15002;SDS011;7597;53.590;10.020;2022-11-20T02:56:30;5.63;;;4.23;;
15002;SDS011;7597;53.590;10.020;2022-11-20T02:58:57;4.77;;;4.27;;
15002;SDS011;7597;53.590;10.020;2022-11-20T03:01:24;6.63;;;4.17;;
15002;SDS011;7597;53.590;10.020;2022-11-20T03:03:50;7.13;;;4.70;;
15002;SDS011;7597;53.590;10.020;2022-11-20T03:06:17;5.57;;;4.27;;
15002;SDS011;7597;53.590;10.020;2022-11-20T03:08:44;4.67;;;4.17;;
15002;SDS011;7597;53.590;10.020;2022-11-20T03:11:10;6.10;;;4.10;;
15002;SDS011;7597;53.590;10.020;2022-11-20T03:13:37;6.80;;;3.93;;
15002;SDS011;7597;53.590;10.020;2022-11-20T03:16:05;6.77;;;4.07;;
15002;SDS011;7597;53.590;10.020;2022-11-20T03:18:32;5.50;;;4.10;;
15002;SDS011;7597;53.590;10.020;2022-11-20T03:20:59;6.97;;;4.60;;
15002;SDS011;7597;53.590;10.020;2022-11-20T03:23:25;7.07;;;4.43;;
15002;SDS011;7597;53.590;10.020;2022-11-20T03:25:52;4.83;;;4.30;;
15002;SDS011;7597;53.590;10.020;2022-11-20T03:28:19;6.70;;;4.27;;
15002;SDS011;7597;53.590;10.020;2022-11-20T03:30:45;6.00;;;5.00;;
15002;SDS011;7597;53.590;10.020;2022-11-20T03:33:12;7.90;;;4.73;;
15002;SDS011;7597;53.590;10.020;2022-11-20T03:35:39;5.33;;;4.60;;
15002;SDS011;7597;53.590;10.020;2022-11-20T03:38:05;4.83;;;3.90;;
15002;SDS011;7597;53.590;10.020;2022-11-20T03:40:33;6.17;;;4.20;;
15002;SDS011;7597;53.590;10.020;2022-11-20T03:42:59;8.07;;;4.50;;
15002;SDS011;7597;53.590;10.020;2022-11-20T03:45:25;5.73;;;4.33;;
15002;SDS011;7597;53.590;10.020;2022-11-20T03:47:52;4.47;;;3.90;;
15002;SDS011;7597;53.590;10.020;2022-11-20T03:50:18;7.63;;;4.30;;
15002;SDS011;7597;53.590;10.020;2022-11-20T03:52:45;6.00;;;4.17;;
15002;SDS011;7597;53.590;10.020;2022-11-20T03:55:12;7.80;;;4.67;;
15002;SDS011;7597;53.590;10.020;2022-11-20T03:57:38;5.93;;;3.97;;
15002;SDS011;7597;53.590;10.020;2022-11-20T04:00:05;4.77;;;4.10;;
15002;SDS011;7597;53.590;10.020;2022-11-20T04:02:32;5.83;;;4.17;;
15002;SDS011;7597;53.590;10.020;2022-11-20T04:04:59;6.80;;;4.47;;
15002;SDS011;7597;53.590;10.020;2022-11-20T04:07:25;4.53;;;3.97;;
15002;SDS011;7597;53.590;10.020;2022-11-20T04:09:52;6.73;;;4.23;;
15002;SDS011;7597;53.590;10.020;2022-11-20T04:12:19;6.47;;;4.23;;
15002;SDS011;7597;53.590;10.020;2022-11-20T04:14:46;6.63;;;4.40;;
15002;SDS011;7597;53.590;10.020;2022-11-20T04:17:13;6.60;;;4.77;;
15002;SDS011;7597;53.590;10.020;2022-11-20T04:19:39;5.40;;;4.37;;
15002;SDS011;7597;53.590;10.020;2022-11-20T04:22:06;5.80;;;4.50;;
15002;SDS011;7597;53.590;10.020;2022-11-20T04:24:33;6.00;;;4.40;;
15002;SDS011;7597;53.590;10.020;2022-11-20T04:26:59;6.07;;;4.40;;
15002;SDS011;7597;53.590;10.020;2022-11-20T04:29:27;4.67;;;4.27;;
15002;SDS011;7597;53.590;10.020;2022-11-20T04:31:53;6.33;;;4.63;;
15002;SDS011;7597;53.590;10.020;2022-11-20T04:34:20;7.03;;;4.60;;
15002;SDS011;7597;53.590;10.020;2022-11-20T04:36:47;7.53;;;4.87;;
15002;SDS011;7597;53.590;10.020;2022-11-20T04:39:14;7.20;;;4.97;;
15002;SDS011;7597;53.590;10.020;2022-11-20T04:41:41;5.97;;;4.77;;
15002;SDS011;7597;53.590;10.020;2022-11-20T04:44:07;7.17;;;4.70;;
15002;SDS011;7597;53.590;10.020;2022-11-20T04:46:35;5.20;;;4.70;;
15002;SDS011;7597;53.590;10.020;2022-11-20T04:49:00;5.90;;;4.40;;
15002;SDS011;7597;53.590;10.020;2022-11-20T04:51:27;5.13;;;4.50;;
15002;SDS011;7597;53.590;10.020;2022-11-20T04:53:54;5.53;;;4.93;;
15002;SDS011;7597;53.590;10.020;2022-11-20T04:56:20;6.80;;;4.87;;
15002;SDS011;7597;53.590;10.020;2022-11-20T04:58:47;6.17;;;4.93;;
15002;SDS011;7597;53.590;10.020;2022-11-20T05:01:17;7.27;;;4.80;;
15002;SDS011;7597;53.590;10.020;2022-11-20T05:03:44;5.90;;;5.00;;
15002;SDS011;7597;53.590;10.020;2022-11-20T05:06:11;6.17;;;4.37;;
15002;SDS011;7597;53.590;10.020;2022-11-20T05:08:37;5.70;;;4.47;;
15002;SDS011;7597;53.590;10.020;2022-11-20T05:11:06;6.17;;;4.70;;
15002;SDS011;7597;53.590;10.020;2022-11-20T05:13:31;6.93;;;4.83;;
15002;SDS011;7597;53.590;10.020;2022-11-20T05:16:03;5.97;;;4.80;;
15002;SDS011;7597;53.590;10.020;2022-11-20T05:18:32;5.43;;;4.90;;
15002;SDS011;7597;53.590;10.020;2022-11-20T05:20:58;6.33;;;4.80;;
15002;SDS011;7597;53.590;10.020;2022-11-20T05:23:25;8.13;;;4.70;;
15002;SDS011;7597;53.590;10.020;2022-11-20T05:25:52;6.17;;;5.10;;
15002;SDS011;7597;53.590;10.020;2022-11-20T05:28:18;6.27;;;4.93;;
15002;SDS011;7597;53.590;10.020;2022-11-20T05:30:44;6.97;;;4.63;;
15002;SDS011;7597;53.590;10.020;2022-11-20T05:33:11;5.00;;;4.50;;
15002;SDS011;7597;53.590;10.020;2022-11-20T05:35:38;6.63;;;5.00;;
15002;SDS011;7597;53.590;10.020;2022-11-20T05:38:04;5.37;;;4.87;;
15002;SDS011;7597;53.590;10.020;2022-11-20T05:40:31;6.73;;;4.90;;
15002;SDS011;7597;53.590;10.020;2022-11-20T05:42:58;6.77;;;6.07;;
15002;SDS011;7597;53.590;10.020;2022-11-20T05:45:24;9.00;;;5.53;;
15002;SDS011;7597;53.590;10.020;2022-11-20T05:47:51;6.37;;;5.10;;
15002;SDS011;7597;53.590;10.020;2022-11-20T05:50:17;7.30;;;5.17;;
15002;SDS011;7597;53.590;10.020;2022-11-20T05:52:44;5.67;;;5.07;;
15002;SDS011;7597;53.590;10.020;2022-11-20T05:55:11;7.27;;;5.50;;
15002;SDS011;7597;53.590;10.020;2022-11-20T05:57:38;6.63;;;5.30;;
15002;SDS011;7597;53.590;10.020;2022-11-20T06:00:05;7.17;;;5.60;;
15002;SDS011;7597;53.590;10.020;2022-11-20T06:02:34;7.80;;;5.03;;
15002;SDS011;7597;53.590;10.020;2022-11-20T06:04:59;6.53;;;5.30;;
15002;SDS011;7597;53.590;10.020;2022-11-20T06:07:26;6.80;;;5.50;;
15002;SDS011;7597;53.590;10.020;2022-11-20T06:09:53;7.77;;;6.23;;
15002;SDS011;7597;53.590;10.020;2022-11-20T06:12:20;7.87;;;6.03;;
15002;SDS011;7597;53.590;10.020;2022-11-20T06:14:47;8.70;;;6.43;;
15002;SDS011;7597;53.590;10.020;2022-11-20T06:17:13;12.23;;;7.87;;
15002;SDS011;7597;53.590;10.020;2022-11-20T06:19:40;10.13;;;7.67;;
15002;SDS011;7597;53.590;10.020;2022-11-20T06:22:07;9.23;;;6.70;;
15002;SDS011;7597;53.590;10.020;2022-11-20T06:24:33;9.93;;;7.77;;
15002;SDS011;7597;53.590;10.020;2022-11-20T06:27:01;11.97;;;8.50;;
15002;SDS011;7597;53.590;10.020;2022-11-20T06:29:27;10.87;;;7.83;;
15002;SDS011;7597;53.590;10.020;2022-11-20T06:31:55;14.23;;;8.07;;
15002;SDS011;7597;53.590;10.020;2022-11-20T06:34:21;13.17;;;8.57;;
15002;SDS011;7597;53.590;10.020;2022-11-20T06:36:48;11.40;;;8.60;;
15002;SDS011;7597;53.590;10.020;2022-11-20T06:39:15;11.13;;;8.90;;
15002;SDS011;7597;53.590;10.020;2022-11-20T06:41:41;12.20;;;8.93;;
15002;SDS011;7597;53.590;10.020;2022-11-20T06:44:08;12.33;;;8.50;;
15002;SDS011;7597;53.590;10.020;2022-11-20T06:46:35;13.10;;;8.63;;
15002;SDS011;7597;53.590;10.020;2022-11-20T06:49:06;12.10;;;9.60;;
15002;SDS011;7597;53.590;10.020;2022-11-20T06:51:32;9.97;;;7.80;;
15002;SDS011;7597;53.590;10.020;2022-11-20T06:53:59;11.03;;;7.97;;
15002;SDS011;7597;53.590;10.020;2022-11-20T06:56:26;9.90;;;7.43;;
15002;SDS011;7597;53.590;10.020;2022-11-20T06:58:52;10.63;;;7.73;;
15002;SDS011;7597;53.590;10.020;2022-11-20T07:01:19;9.77;;;7.43;;
15002;SDS011;7597;53.590;10.020;2022-11-20T07:03:48;9.03;;;7.30;;
15002;SDS011;7597;53.590;10.020;2022-11-20T07:06:12;9.20;;;6.77;;
15002;SDS011;7597;53.590;10.020;2022-11-20T07:08:39;8.60;;;6.53;;
15002;SDS011;7597;53.590;10.020;2022-11-20T07:11:06;7.97;;;6.53;;
15002;SDS011;7597;53.590;10.020;2022-11-20T07:13:32;6.77;;;5.93;;
15002;SDS011;7597;53.590;10.020;2022-11-20T07:15:59;8.97;;;6.50;;
15002;SDS011;7597;53.590;10.020;2022-11-20T07:18:25;8.07;;;6.27;;
15002;SDS011;7597;53.590;10.020;2022-11-20T07:20:52;7.37;;;6.03;;
15002;SDS011;7597;53.590;10.020;2022-11-20T07:23:19;8.27;;;6.20;;
15002;SDS011;7597;53.590;10.020;2022-11-20T07:25:45;9.40;;;6.10;;
15002;SDS011;7597;53.590;10.020;2022-11-20T07:28:12;8.83;;;6.43;;
15002;SDS011;7597;53.590;10.020;2022-11-20T07:30:38;7.30;;;6.10;;
15002;SDS011;7597;53.590;10.020;2022-11-20T07:33:05;7.37;;;5.80;;
15002;SDS011;7597;53.590;10.020;2022-11-20T07:35:32;7.10;;;5.90;;
15002;SDS011;7597;53.590;10.020;2022-11-20T07:37:58;7.10;;;5.73;;
15002;SDS011;7597;53.590;10.020;2022-11-20T07:40:25;6.53;;;5.43;;
15002;SDS011;7597;53.590;10.020;2022-11-20T07:42:52;5.60;;;5.00;;
15002;SDS011;7597;53.590;10.020;2022-11-20T07:45:20;6.53;;;5.17;;
15002;SDS011;7597;53.590;10.020;2022-11-20T07:47:46;7.50;;;5.87;;
15002;SDS011;7597;53.590;10.020;2022-11-20T07:50:13;8.53;;;6.23;;
15002;SDS011;7597;53.590;10.020;2022-11-20T07:52:39;7.47;;;5.97;;
15002;SDS011;7597;53.590;10.020;2022-11-20T07:55:06;7.30;;;5.33;;
15002;SDS011;7597;53.590;10.020;2022-11-20T07:57:33;6.67;;;5.80;;
15002;SDS011;7597;53.590;10.020;2022-11-20T08:00:00;7.00;;;5.67;;
15002;SDS011;7597;53.590;10.020;2022-11-20T08:02:26;7.90;;;5.73;;
15002;SDS011;7597;53.590;10.020;2022-11-20T08:04:53;9.60;;;6.37;;
15002;SDS011;7597;53.590;10.020;2022-11-20T08:07:20;7.90;;;6.73;;
15002;SDS011;7597;53.590;10.020;2022-11-20T08:09:47;11.67;;;6.40;;
15002;SDS011;7597;53.590;10.020;2022-11-20T08:12:17;9.63;;;6.63;;
15002;SDS011;7597;53.590;10.020;2022-11-20T08:14:50;8.80;;;6.23;;
15002;SDS011;7597;53.590;10.020;2022-11-20T08:17:16;6.17;;;5.57;;
15002;SDS011;7597;53.590;10.020;2022-11-20T08:19:43;6.87;;;5.20;;
15002;SDS011;7597;53.590;10.020;2022-11-20T08:22:10;6.57;;;5.10;;
15002;SDS011;7597;53.590;10.020;2022-11-20T08:24:37;5.80;;;4.97;;
15002;SDS011;7597;53.590;10.020;2022-11-20T08:27:04;7.17;;;5.43;;
15002;SDS011;7597;53.590;10.020;2022-11-20T08:29:31;6.80;;;5.00;;
15002;SDS011;7597;53.590;10.020;2022-11-20T08:31:58;5.37;;;4.87;;
15002;SDS011;7597;53.590;10.020;2022-11-20T08:34:24;9.10;;;5.40;;
15002;SDS011;7597;53.590;10.020;2022-11-20T08:36:51;5.13;;;4.47;;
15002;SDS011;7597;53.590;10.020;2022-11-20T08:39:17;4.47;;;4.00;;
15002;SDS011;7597;53.590;10.020;2022-11-20T08:41:45;4.97;;;4.47;;
15002;SDS011;7597;53.590;10.020;2022-11-20T08:44:11;5.70;;;4.30;;
15002;SDS011;7597;53.590;10.020;2022-11-20T08:46:39;4.30;;;3.60;;
15002;SDS011;7597;53.590;10.020;2022-11-20T08:49:05;6.00;;;3.80;;
15002;SDS011;7597;53.590;10.020;2022-11-20T08:51:31;4.10;;;3.70;;
15002;SDS011;7597;53.590;10.020;2022-11-20T08:53:58;4.30;;;3.77;;
15002;SDS011;7597;53.590;10.020;2022-11-20T08:56:24;4.03;;;3.70;;
15002;SDS011;7597;53.590;10.020;2022-11-20T08:58:51;4.57;;;3.70;;
15002;SDS011;7597;53.590;10.020;2022-11-20T09:01:19;4.50;;;3.40;;
15002;SDS011;7597;53.590;10.020;2022-11-20T09:03:45;3.83;;;3.40;;
15002;SDS011;7597;53.590;10.020;2022-11-20T09:06:12;4.97;;;3.70;;
15002;SDS011;7597;53.590;10.020;2022-11-20T09:08:39;5.47;;;4.00;;
15002;SDS011;7597;53.590;10.020;2022-11-20T09:11:05;4.80;;;3.70;;
15002;SDS011;7597;53.590;10.020;2022-11-20T09:13:32;3.90;;;3.40;;
15002;SDS011;7597;53.590;10.020;2022-11-20T09:15:59;4.00;;;3.60;;
15002;SDS011;7597;53.590;10.020;2022-11-20T09:18:25;4.63;;;3.87;;
15002;SDS011;7597;53.590;10.020;2022-11-20T09:20:55;5.53;;;3.67;;
15002;SDS011;7597;53.590;10.020;2022-11-20T09:23:18;3.67;;;3.37;;
15002;SDS011;7597;53.590;10.020;2022-11-20T09:25:45;4.90;;;4.17;;
15002;SDS011;7597;53.590;10.020;2022-11-20T09:28:12;6.93;;;5.27;;
15002;SDS011;7597;53.590;10.020;2022-11-20T09:30:38;8.23;;;5.67;;
15002;SDS011;7597;53.590;10.020;2022-11-20T09:33:06;5.83;;;5.10;;
15002;SDS011;7597;53.590;10.020;2022-11-20T09:35:33;8.77;;;6.03;;
15002;SDS011;7597;53.590;10.020;2022-11-20T09:38:04;6.97;;;5.20;;
15002;SDS011;7597;53.590;10.020;2022-11-20T09:40:26;5.30;;;4.23;;
15002;SDS011;7597;53.590;10.020;2022-11-20T09:42:56;10.73;;;6.93;;
15002;SDS011;7597;53.590;10.020;2022-11-20T09:45:44;20.23;;;11.60;;
15002;SDS011;7597;53.590;10.020;2022-11-20T09:49:32;5.27;;;4.70;;
15002;SDS011;7597;53.590;10.020;2022-11-20T09:51:14;6.10;;;4.40;;
15002;SDS011;7597;53.590;10.020;2022-11-20T09:53:46;4.50;;;4.10;;
15002;SDS011;7597;53.590;10.020;2022-11-20T09:56:12;5.40;;;4.50;;
15002;SDS011;7597;53.590;10.020;2022-11-20T09:58:42;5.00;;;4.50;;
15002;SDS011;7597;53.590;10.020;2022-11-20T10:01:12;5.80;;;4.80;;
15002;SDS011;7597;53.590;10.020;2022-11-20T10:03:41;5.10;;;4.27;;
15002;SDS011;7597;53.590;10.020;2022-11-20T10:06:07;5.63;;;4.40;;
15002;SDS011;7597;53.590;10.020;2022-11-20T10:08:39;4.70;;;4.13;;
15002;SDS011;7597;53.590;10.020;2022-11-20T10:11:04;4.83;;;4.10;;
15002;SDS011;7597;53.590;10.020;2022-11-20T10:13:35;7.47;;;4.60;;
15002;SDS011;7597;53.590;10.020;2022-11-20T10:21:23;5.67;;;3.90;;
15002;SDS011;7597;53.590;10.020;2022-11-20T10:23:58;4.70;;;4.30;;
15002;SDS011;7597;53.590;10.020;2022-11-20T10:26:38;5.00;;;4.20;;
15002;SDS011;7597;53.590;10.020;2022-11-20T10:29:11;4.60;;;4.13;;
15002;SDS011;7597;53.590;10.020;2022-11-20T10:31:37;5.73;;;4.30;;
15002;SDS011;7597;53.590;10.020;2022-11-20T10:34:07;3.93;;;3.53;;
15002;SDS011;7597;53.590;10.020;2022-11-20T10:36:34;5.57;;;4.17;;
15002;SDS011;7597;53.590;10.020;2022-11-20T10:39:04;4.30;;;3.90;;
15002;SDS011;7597;53.590;10.020;2022-11-20T10:41:43;3.80;;;3.40;;
15002;SDS011;7597;53.590;10.020;2022-11-20T10:44:12;4.87;;;4.23;;
15002;SDS011;7597;53.590;10.020;2022-11-20T10:49:29;4.37;;;3.97;;
15002;SDS011;7597;53.590;10.020;2022-11-20T10:52:01;5.57;;;4.47;;
15002;SDS011;7597;53.590;10.020;2022-11-20T10:57:49;4.77;;;3.87;;
15002;SDS011;7597;53.590;10.020;2022-11-20T10:59:59;5.17;;;4.57;;
15002;SDS011;7597;53.590;10.020;2022-11-20T11:02:31;3.93;;;3.57;;
15002;SDS011;7597;53.590;10.020;2022-11-20T11:04:57;6.67;;;3.93;;
15002;SDS011;7597;53.590;10.020;2022-11-20T11:07:24;3.83;;;3.43;;
15002;SDS011;7597;53.590;10.020;2022-11-20T11:10:00;4.10;;;3.67;;
15002;SDS011;7597;53.590;10.020;2022-11-20T11:12:27;4.30;;;3.90;;
15002;SDS011;7597;53.590;10.020;2022-11-20T11:14:54;3.83;;;3.50;;
15002;SDS011;7597;53.590;10.020;2022-11-20T11:17:21;3.87;;;3.50;;
15002;SDS011;7597;53.590;10.020;2022-11-20T11:22:24;4.27;;;3.87;;
15002;SDS011;7597;53.590;10.020;2022-11-20T11:24:52;3.97;;;3.57;;
15002;SDS011;7597;53.590;10.020;2022-11-20T11:27:18;5.23;;;3.83;;
15002;SDS011;7597;53.590;10.020;2022-11-20T11:29:45;3.63;;;3.33;;
15002;SDS011;7597;53.590;10.020;2022-11-20T11:32:13;3.60;;;3.30;;
15002;SDS011;7597;53.590;10.020;2022-11-20T11:34:41;3.60;;;3.30;;
15002;SDS011;7597;53.590;10.020;2022-11-20T11:39:41;3.47;;;2.90;;
15002;SDS011;7597;53.590;10.020;2022-11-20T11:42:10;6.23;;;5.17;;
15002;SDS011;7597;53.590;10.020;2022-11-20T11:44:34;5.73;;;5.20;;
15002;SDS011;7597;53.590;10.020;2022-11-20T11:47:11;8.80;;;7.87;;
15002;SDS011;7597;53.590;10.020;2022-11-20T11:49:37;3.40;;;3.10;;
15002;SDS011;7597;53.590;10.020;2022-11-20T11:52:08;3.97;;;3.27;;
15002;SDS011;7597;53.590;10.020;2022-11-20T11:57:16;3.33;;;3.00;;
15002;SDS011;7597;53.590;10.020;2022-11-20T11:59:56;3.20;;;2.77;;
15002;SDS011;7597;53.590;10.020;2022-11-20T12:02:29;2.93;;;2.70;;
15002;SDS011;7597;53.590;10.020;2022-11-20T12:04:57;3.90;;;2.60;;
15002;SDS011;7597;53.590;10.020;2022-11-20T12:07:24;3.00;;;2.80;;
15002;SDS011;7597;53.590;10.020;2022-11-20T12:10:04;3.57;;;2.80;;
15002;SDS011;7597;53.590;10.020;2022-11-20T12:12:32;3.07;;;2.80;;
15002;SDS011;7597;53.590;10.020;2022-11-20T12:14:57;2.57;;;2.37;;
15002;SDS011;7597;53.590;10.020;2022-11-20T12:17:24;2.70;;;2.50;;
15002;SDS011;7597;53.590;10.020;2022-11-20T12:19:51;3.00;;;2.70;;
15002;SDS011;7597;53.590;10.020;2022-11-20T12:25:02;3.10;;;2.70;;
15002;SDS011;7597;53.590;10.020;2022-11-20T12:30:32;2.87;;;2.67;;
15002;SDS011;7597;53.590;10.020;2022-11-20T12:36:27;3.60;;;3.20;;
15002;SDS011;7597;53.590;10.020;2022-11-20T12:38:56;4.30;;;3.53;;
15002;SDS011;7597;53.590;10.020;2022-11-20T12:41:25;3.67;;;3.30;;
15002;SDS011;7597;53.590;10.020;2022-11-20T12:44:10;2.97;;;2.77;;
15002;SDS011;7597;53.590;10.020;2022-11-20T12:46:42;3.13;;;2.83;;
15002;SDS011;7597;53.590;10.020;2022-11-20T12:54:52;2.60;;;2.40;;
15002;SDS011;7597;53.590;10.020;2022-11-20T12:57:35;2.83;;;2.63;;
15002;SDS011;7597;53.590;10.020;2022-11-20T13:00:02;4.73;;;3.43;;
15002;SDS011;7597;53.590;10.020;2022-11-20T13:02:33;11.97;;;8.53;;
15002;SDS011;7597;53.590;10.020;2022-11-20T13:05:23;4.20;;;3.67;;
15002;SDS011;7597;53.590;10.020;2022-11-20T13:07:48;3.03;;;2.80;;
15002;SDS011;7597;53.590;10.020;2022-11-20T13:10:18;3.57;;;2.93;;
15002;SDS011;7597;53.590;10.020;2022-11-20T13:12:45;2.80;;;2.50;;
15002;SDS011;7597;53.590;10.020;2022-11-20T13:15:30;4.60;;;3.10;;
15002;SDS011;7597;53.590;10.020;2022-11-20T13:17:54;3.23;;;2.87;;
15002;SDS011;7597;53.590;10.020;2022-11-20T13:20:20;4.13;;;3.30;;
15002;SDS011;7597;53.590;10.020;2022-11-20T13:22:47;3.80;;;3.07;;
15002;SDS011;7597;53.590;10.020;2022-11-20T13:27:52;2.80;;;2.60;;
15002;SDS011;7597;53.590;10.020;2022-11-20T13:30:19;3.73;;;2.90;;
15002;SDS011;7597;53.590;10.020;2022-11-20T13:35:26;5.00;;;3.07;;
15002;SDS011;7597;53.590;10.020;2022-11-20T13:40:28;5.60;;;4.17;;
15002;SDS011;7597;53.590;10.020;2022-11-20T13:42:56;4.30;;;3.50;;
15002;SDS011;7597;53.590;10.020;2022-11-20T13:45:23;2.77;;;2.50;;
15002;SDS011;7597;53.590;10.020;2022-11-20T13:47:52;4.23;;;3.83;;
15002;SDS011;7597;53.590;10.020;2022-11-20T13:50:18;4.90;;;3.87;;
15002;SDS011;7597;53.590;10.020;2022-11-20T13:52:49;4.80;;;3.70;;
15002;SDS011;7597;53.590;10.020;2022-11-20T13:55:16;4.17;;;3.40;;
15002;SDS011;7597;53.590;10.020;2022-11-20T13:57:49;5.03;;;3.63;;
15002;SDS011;7597;53.590;10.020;2022-11-20T14:00:19;3.63;;;3.33;;
15002;SDS011;7597;53.590;10.020;2022-11-20T14:02:50;7.30;;;5.13;;
15002;SDS011;7597;53.590;10.020;2022-11-20T14:05:19;5.50;;;4.83;;
15002;SDS011;7597;53.590;10.020;2022-11-20T14:07:44;4.10;;;3.10;;
15002;SDS011;7597;53.590;10.020;2022-11-20T14:12:46;3.33;;;3.03;;
15002;SDS011;7597;53.590;10.020;2022-11-20T14:17:59;3.93;;;3.37;;
15002;SDS011;7597;53.590;10.020;2022-11-20T14:20:27;3.43;;;3.13;;
15002;SDS011;7597;53.590;10.020;2022-11-20T14:22:53;3.97;;;3.57;;
15002;SDS011;7597;53.590;10.020;2022-11-20T14:25:21;3.27;;;2.97;;
15002;SDS011;7597;53.590;10.020;2022-11-20T14:27:51;4.70;;;3.70;;
15002;SDS011;7597;53.590;10.020;2022-11-20T14:30:19;3.77;;;3.47;;
15002;SDS011;7597;53.590;10.020;2022-11-20T14:32:45;4.10;;;3.57;;
15002;SDS011;7597;53.590;10.020;2022-11-20T14:35:20;3.70;;;3.37;;
15002;SDS011;7597;53.590;10.020;2022-11-20T14:38:00;3.80;;;3.13;;
15002;SDS011;7597;53.590;10.020;2022-11-20T14:40:28;5.70;;;3.87;;
15002;SDS011;7597;53.590;10.020;2022-11-20T14:42:53;3.77;;;3.10;;
15002;SDS011;7597;53.590;10.020;2022-11-20T14:45:20;3.67;;;3.00;;
15002;SDS011;7597;53.590;10.020;2022-11-20T14:47:47;5.17;;;3.77;;
15002;SDS011;7597;53.590;10.020;2022-11-20T14:50:16;4.83;;;3.73;;
15002;SDS011;7597;53.590;10.020;2022-11-20T14:52:49;3.23;;;2.93;;
15002;SDS011;7597;53.590;10.020;2022-11-20T14:55:13;3.07;;;2.70;;
15002;SDS011;7597;53.590;10.020;2022-11-20T14:57:36;3.37;;;2.90;;
15002;SDS011;7597;53.590;10.020;2022-11-20T15:00:07;3.63;;;2.93;;
15002;SDS011;7597;53.590;10.020;2022-11-20T15:02:49;3.93;;;3.50;;
15002;SDS011;7597;53.590;10.020;2022-11-20T15:05:15;3.67;;;2.87;;
15002;SDS011;7597;53.590;10.020;2022-11-20T15:07:43;2.70;;;2.50;;
15002;SDS011;7597;53.590;10.020;2022-11-20T15:10:10;3.23;;;2.93;;
15002;SDS011;7597;53.590;10.020;2022-11-20T15:12:38;4.00;;;3.30;;
15002;SDS011;7597;53.590;10.020;2022-11-20T15:15:04;3.67;;;3.33;;
15002;SDS011;7597;53.590;10.020;2022-11-20T15:17:32;3.57;;;3.27;;
15002;SDS011;7597;53.590;10.020;2022-11-20T15:19:58;5.07;;;3.93;;
15002;SDS011;7597;53.590;10.020;2022-11-20T15:22:25;5.50;;;3.77;;
15002;SDS011;7597;53.590;10.020;2022-11-20T15:24:51;3.80;;;3.40;;
15002;SDS011;7597;53.590;10.020;2022-11-20T15:27:18;3.53;;;3.10;;
15002;SDS011;7597;53.590;10.020;2022-11-20T15:29:44;4.37;;;3.43;;
15002;SDS011;7597;53.590;10.020;2022-11-20T15:32:11;4.30;;;3.30;;
15002;SDS011;7597;53.590;10.020;2022-11-20T15:34:38;3.60;;;3.23;;
15002;SDS011;7597;53.590;10.020;2022-11-20T15:37:04;6.70;;;4.60;;
15002;SDS011;7597;53.590;10.020;2022-11-20T15:39:31;8.80;;;5.37;;